Portada
METAR-TAF:

METAR-TAF

Aeroports :

Turaif, Aràbia Saudita

latitud: 31-41N, longitud: 038-44E, altitud: 813 m

Observació

L'informe es va fer fa 44 minuts, a les 02:00 UTC
Vent 6 kt del Nord-Est
Temperatura 5°C
Humitat 100%
Pressió 1018 hPa
Visibilitat 10 km o més
sense núvols per sota de 1500 mi sense presència de cumulonimbus.

METAR: OETR 230200Z 05006KT CAVOK 05/05 Q1018

Hora: 05:44 (02:44 UTC)

Pronòstic

L'informe es va fer fa 3 hores i 44 minuts, a les 23:00 UTC
Pronòstic vàlid del 23 a les 00 UTC al 24 a les 06 UTC
Vent 3 kt amb direcció variable
Visibilitat: 7000 m
Escasses núvols a una alçada de 3000 ft
Evolucionant progressivament
l' 23 a les 08 UTC al 23 a les 10 UTC
Vent 13 kt del Est/Sud-Est
Temporalment
l' 23 a les 08 UTC al 23 a les 16 UTC
Visibilitat: 3000 m
Pols estès, torb alta de pols

TAF: OETR 222300Z 2300/2406 VRB03KT 7000 FEW030 BECMG 2308/2310 12013KT TEMPO 2308/2316 3000 DU BLDU

Observacions i pronòstics meteorològics de més de 4000 aeroports (METAR i TAF).

Les estacions disponibles són els punts grocs i vermells al mapa.

Posi el ratolí al punt desitjat per veure el nom de l'estació.

Feu clic per veure les observacions i els pronòstics meteorològics.

Per canviar el mapa: feu clic els botons verds amb una creu de color negre per apropar; al botó verd amb un guió per allunyar la imatge; o en les fletxes verdes per a mapes adjacents.


METAR-TAF: